Hit Tracker is now ESPN Home Run Tracker! Hit Tracker founder Greg Rybarczyk is now collaborating with the ESPN Stats & Information Group to continue tracking all MLB home runs, and helping baseball fans know "How Far It Really Went!™" Please credit any information on this site to ESPN Stats & Information Group. For more information and analysis on home runs, please contact founder Greg Rybarczyk. E-Mail ESPN Home Run Tracker
Main Page | Ballparks | Park Overlays | Glossary | Highlight Homers | Feedback | Bio | 3 Types of HR's | AAA Home Run Derby Last Updated: May 23, 2017, 1:12 pm PST
If you want to know "How Far It Really Went!", then you've come to the right place! Welcome to the ESPN Home Run Tracker, where you can find accurate, transparently verifiable distances for every home run hit in MLB games. Please also check out the ESPN MLB Scoreboard throughout the 2017 season! Contact us at grybar@hittrackeronline.com.
Season:
Ballpark detail for Citi Field
Ballpark # of Home Runs HR per game Avg.
True
Distance
Avg.
Speed
Off
Bat
Avg.
Std.
Dist.
Citi Field 46 2.00 398.7 104 396.3

Scatter Plot of Home Runs Citi Field
 Overlay Ballpark:
Without range rings   With range rings

2017 Season Home Runs for Citi Field
Click headers to sort
Date Video Path Hitter Hitter
Team
Pitcher Pitcher
Team
INN Ballpark Type/
Luck
 ^
True
Dist.
Speed
Off
Bat
Elev.
Angle
Horiz.
Angle
Apex Impact Due To: Std.
Dist.
#
Parks
Wind Temp. Alt.
04/09/17 Video View Bruce, Jay NYM Volquez, Edinson MIA 5 Citi Field PL 428 105.0 25.9 85.7 90 2 -2 0 427 29
04/08/17 Video View Duda, Lucas NYM Conley, Adam MIA 5 Citi Field PL 404 102.2 25.6 98.0 81 1 -1 0 404 19
04/07/17 Video View Cespedes, Yoenis NYM Wittgren, Nick MIA 8 Citi Field PL 368 99.1 36.4 111.9 130 12 -7 0 363 16
04/07/17 Video View Yelich, Christian MIA Wheeler, Zack NYM 3 Citi Field PL 352 99.3 29.9 60.8 86 -10 -3 0 366 30
04/06/17 Video View Kemp, Matt ATL Harvey, Matt NYM 5 Citi Field PL 418 103.6 25.6 96.6 80 5 -2 0 415 26
04/18/17 Video View Herrera, Odubel PHI Wheeler, Zack NYM 1 Citi Field PL 395 101.2 26.6 71.3 72 14 -2 0 382 15
04/20/17 Video View Walker, Neil NYM Nola, Aaron PHI 3 Citi Field PL 424 103.0 28.5 85.4 100 6 -2 0 420 24
04/21/17 Video View Lobaton, Jose WSH Harvey, Matt NYM 5 Citi Field PL 426 107.6 22.4 84.5 78 2 -1 0 425 26
04/21/17 Video View Granderson, Curtis NYM Roark, Tanner WSH 6 Citi Field PL 389 105.1 29.4 69.3 105 -14 -3 0 408 30
04/27/17 Video View Suzuki, Kurt ATL Harvey, Matt NYM 5 Citi Field PL 382 96.4 32.8 106.6 98 13 -1 0 369 13
05/05/17 Video View Rivera, T.J. NYM Koehler, Tom MIA 1 Citi Field PL 364 99.6 30.1 121.9 81 0 -1 0 365 30
05/05/17 Video View Granderson, Curtis NYM Koehler, Tom MIA 4 Citi Field PL 388 98.5 30.5 78.6 99 2 -1 0 387 20
05/06/17 Video View Stanton, Giancarlo MIA Gsellman, Robert NYM 2 Citi Field PL 405 105.2 23.9 78.0 72 1 -1 0 405 27
05/07/17 Video View Hechavarria, Adeiny MIA Wilk, Adam NYM 4 Citi Field PL 405 103.8 25.4 101.6 79 0 -1 0 406 30
05/09/17 Video View Posey, Buster SF Wheeler, Zach NYM 4 Citi Field PL 386 99.0 27.8 102.0 84 2 -2 0 386 16
05/09/17 Video View Conforto, Michael NYM Samardzija, Jeff SF 7 Citi Field PL 433 105.1 30.2 83.7 117 7 -3 0 428 28
05/19/17 Video View Conforto, Michael NYM Alvarez, Jose LAA 7 Citi Field PL 400 104.3 25.7 105.9 80 -2 0 0 402 30
05/21/17 Video View Trout, Mike LAA Milone, Tommy NYM 2 Citi Field PL 410 99.0 31.7 80.5 103 20 -1 0 391 7
05/21/17 Video View Marte, Jefry LAA Milone, Tommy NYM 2 Citi Field PL 390 98.6 35.7 114.7 112 29 -1 0 362 16
05/21/17 Video View Granderson, Curtis NYM Chavez, Jesse LAA 5 Citi Field PL 398 107.2 22.7 73.4 61 3 0 0 395 25
05/21/17 Video View Simmons, Andrelton LAA Robles, Hansel NYM 7 Citi Field PL/L 366 96.5 33.0 125.1 84 17 -1 0 350 26
04/09/17 Video View Conforto, Michael NYM Volquez, Edinson MIA 6 Citi Field ND 428 110.2 24.4 74.0 77 3 -2 0 427 30
04/08/17 Video View Ozuna, Marcell MIA Gsellman, Robert NYM 2 Citi Field ND 439 113.8 26.7 110.0 100 -7 -3 0 449 30
04/06/17 Video View Flores, Wilmer NYM Garcia, Jaime ATL 6 Citi Field ND/L 395 105.9 29.6 126.0 86 5 -3 0 392 30
04/06/17 Video View Kemp, Matt ATL Harvey, Matt NYM 7 Citi Field ND 418 111.1 27.3 121.7 83 4 -3 0 417 30
04/23/17 Video View Zimmerman, Ryan WSH Smoker, Josh NYM 8 Citi Field ND 418 104.2 30.2 106.2 103 10 -3 0 410 30
05/06/17 Video View Ozuna, Marcell MIA Gsellman, Robert NYM 5 Citi Field ND 421 103.8 27.3 104.4 86 15 -1 0 407 30
05/07/17 Video View Stanton, Giancarlo MIA Wilk, Adam NYM 1 Citi Field ND 425 110.8 25.3 110.8 78 3 -1 0 425 30
05/07/17 Video View Stanton, Giancarlo MIA Wilk, Adam NYM 3 Citi Field ND 447 117.6 26.0 117.8 89 -2 -2 0 451 30
05/08/17 Video View Posey, Buster SF deGrom, Jacob NYM 6 Citi Field ND 416 105.8 29.1 106.0 104 0 -3 0 419 30
05/10/17 Video View Bruce, Jay NYM Cain, Matt SF 3 Citi Field ND 424 105.2 27.2 78.8 93 4 -1 0 421 29
05/21/17 Video View Cron, C.J. LAA Milone, Tommy NYM 1 Citi Field ND 409 104.5 28.0 111.8 83 9 -1 0 400 30
04/05/17 Video View Bruce, Jay NYM Colon, Bartolo ATL 5 Citi Field JE 385 106.6 22.9 69.8 59 2 -1 0 385 25
04/19/17 Video View Bruce, Jay NYM Velasquez, Vince PHI 6 Citi Field JE 393 110.2 22.1 67.9 59 1 -2 0 394 29
04/19/17 Video View Bruce, Jay NYM Ramos, Edubray PHI 8 Citi Field JE 378 109.3 21.2 67.3 53 0 -1 0 379 24
04/20/17 Video View Franco, Maikel PHI Salas, Fernando NYM 8 Citi Field JE 375 105.5 21.1 104.3 54 -1 -1 0 377 2
04/21/17 Video View Harper, Bryce WSH Harvey, Matt NYM 1 Citi Field JE/L 418 107.8 20.1 87.5 66 4 0 0 414 17
04/21/17 Video View Conforto, Michael NYM Roark, Tanner WSH 1 Citi Field JE 387 104.2 21.8 100.7 62 2 0 0 385 5
04/23/17 Video View Murphy, Daniel WSH Wheeler, Zack NYM 1 Citi Field JE 408 103.6 23.8 82.9 71 3 -1 0 406 15
04/23/17 Video View Conforto, Michael NYM Scherzer, Max WSH 1 Citi Field JE 348 94.5 35.6 122.0 98 11 -3 0 340 7
04/23/17 Video View Walker, Neil NYM Scherzer, Max WSH 3 Citi Field JE 352 100.2 26.1 55.9 61 2 -1 0 351 19
04/27/17 Video View Reyes, Jose NYM Dickey, R.A. ATL 5 Citi Field JE 374 100.5 27.0 66.0 71 4 0 0 371 22
05/08/17 Video View Pence, Hunter SF deGrom, Jacob NYM 1 Citi Field JE 389 98.5 28.5 81.8 92 0 -1 0 390 9
05/10/17 Video View Posey, Buster SF Milone, Tommy NYM 2 Citi Field JE 374 101.9 25.8 112.1 71 -1 -1 0 376 21
05/21/17 Video View Reynolds, Matt NYM Chavez, Jesse LAA 3 Citi Field JE 394 104.7 22.2 100.2 60 0 0 0 394 7
05/21/17 Video View Bruce, Jay NYM Chavez, Jesse LAA 6 Citi Field JE/L 393 103.5 21.9 83.4 63 0 0 0 394 3


About HitTracker | Contact Us
© 2006-2017 HitTrackerOnline